Time;durP1;ratioP1;P1;durP2;ratioP2;P2;SDS_P1;SDS_P2;PMS_P1;PMS_P2;Temp;Humidity;BMP_temperature;BMP_pressure;BME280_temperature;BME280_humidity;BME280_pressure;Samples;Min_cycle;Max_cycle;Signal;HPM_P1;HPM_P2
2023/10/24 00:01:30;;;;;;;;;;;5.40;76.50;;;;;;4143462;28;19914;-85
2023/10/24 00:03:34;;;;;;;;;;;5.40;76.40;;;;;;4142744;28;19921;-84
2023/10/24 00:05:37;;;;;;;;;;;5.40;76.50;;;;;;4125899;28;19917;-85
2023/10/24 00:07:38;;;;;;;;;;;5.40;76.50;;;;;;4131560;28;19918;-84
2023/10/24 00:09:40;;;;;;;;;;;5.50;76.70;;;;;;4139565;28;20344;-84
2023/10/24 00:11:42;;;;;;;;;;;5.40;76.80;;;;;;4155682;28;19913;-84
2023/10/24 00:13:42;;;;;;;;;;;5.40;76.80;;;;;;4155383;28;19921;-84
2023/10/24 00:15:43;;;;;;;;;;;5.40;76.80;;;;;;4158370;28;19975;-84
2023/10/24 00:17:43;;;;;;;;;;;5.60;76.90;;;;;;4147249;28;19925;-84
2023/10/24 00:19:44;;;;;;;;;;;5.60;77.00;;;;;;4160673;28;19912;-84
2023/10/24 00:21:44;;;;;;;;;;;5.50;76.80;;;;;;4158542;28;19913;-84
2023/10/24 00:23:47;;;;;;;;;;;5.50;76.90;;;;;;4138014;28;19956;-84
2023/10/24 00:25:48;;;;;;;;;;;5.60;76.90;;;;;;4158842;28;20346;-83
2023/10/24 00:27:49;;;;;;;;;;;5.60;76.90;;;;;;4138174;28;19928;-83
2023/10/24 00:30:10;;;;;;;;;;;5.60;77.00;;;;;;4155989;28;19913;-84
2023/10/24 00:32:31;;;;;;;;;;;5.50;76.90;;;;;;4143354;28;19918;-84
2023/10/24 00:34:40;;;;;;;;;;;5.50;76.80;;;;;;4140996;28;19918;-84
2023/10/24 00:37:00;;;;;;;;;;;5.50;76.80;;;;;;4143349;28;19918;-84
2023/10/24 00:39:21;;;;;;;;;;;5.60;77.10;;;;;;4166217;28;19917;-84
2023/10/24 00:41:41;;;;;;;;;;;5.70;77.30;;;;;;4170903;28;19959;-85
2023/10/24 00:44:02;;;;;;;;;;;5.70;77.50;;;;;;4142742;28;19945;-84
2023/10/24 00:46:23;;;;;;;;;;;5.80;77.60;;;;;;4155566;28;19957;-84
2023/10/24 00:48:44;;;;;;;;;;;5.70;77.60;;;;;;4158523;28;19929;-84
2023/10/24 00:51:04;;;;;;;;;;;5.60;77.60;;;;;;4142279;28;19944;-84
2023/10/24 00:53:05;;;;;;;;;;;5.80;77.80;;;;;;4121119;28;19922;-84
2023/10/24 00:55:07;;;;;;;;;;;5.80;77.70;;;;;;4152704;28;19924;-84
2023/10/24 00:57:11;;;;;;;;;;;5.80;77.70;;;;;;4140344;28;20049;-83
2023/10/24 00:59:12;;;;;;;;;;;5.90;77.80;;;;;;4154697;28;19917;-84
2023/10/24 01:01:13;;;;;;;;;;;5.90;77.80;;;;;;4153057;28;20477;-84
2023/10/24 01:03:14;;;;;;;;;;;5.90;77.80;;;;;;4154976;28;19921;-84
2023/10/24 01:05:15;;;;;;;;;;;5.90;77.80;;;;;;4138577;28;20001;-84
2023/10/24 01:07:15;;;;;;;;;;;6.00;78.00;;;;;;4138404;28;19972;-84
2023/10/24 01:09:16;;;;;;;;;;;6.00;78.00;;;;;;4119572;28;19936;-84
2023/10/24 01:11:17;;;;;;;;;;;6.10;78.00;;;;;;4149779;28;20395;-84
2023/10/24 01:13:17;;;;;;;;;;;6.00;78.00;;;;;;4137927;28;20008;-84
2023/10/24 01:15:18;;;;;;;;;;;6.00;78.10;;;;;;4158703;28;19960;-85
2023/10/24 01:17:19;;;;;;;;;;;6.10;78.20;;;;;;4139491;28;20418;-84
2023/10/24 01:19:19;;;;;;;;;;;6.20;78.30;;;;;;4131202;28;20111;-84
2023/10/24 01:21:20;;;;;;;;;;;6.20;78.30;;;;;;4153476;28;19921;-84
2023/10/24 01:23:21;;;;;;;;;;;6.20;78.30;;;;;;4137273;28;19936;-84
2023/10/24 01:25:23;;;;;;;;;;;6.30;78.30;;;;;;4157322;28;19971;-84
2023/10/24 01:27:25;;;;;;;;;;;6.10;78.20;;;;;;4158135;28;19917;-84
2023/10/24 01:29:25;;;;;;;;;;;6.30;78.20;;;;;;4157232;28;19913;-83
2023/10/24 01:31:26;;;;;;;;;;;6.40;78.20;;;;;;4154877;28;19959;-85
2023/10/24 01:33:27;;;;;;;;;;;6.40;78.90;;;;;;4154555;28;19917;-84
2023/10/24 01:35:27;;;;;;;;;;;6.50;79.30;;;;;;4156043;28;20020;-84
2023/10/24 01:37:28;;;;;;;;;;;6.50;79.60;;;;;;4155859;28;19921;-84
2023/10/24 01:39:30;;;;;;;;;;;6.50;79.70;;;;;;4155677;28;19971;-83
2023/10/24 01:41:31;;;;;;;;;;;6.50;79.70;;;;;;4142354;28;19917;-84
2023/10/24 01:43:32;;;;;;;;;;;6.60;79.80;;;;;;4138635;28;20445;-83
2023/10/24 01:45:32;;;;;;;;;;;6.60;79.60;;;;;;4156060;28;19925;-83
2023/10/24 01:47:33;;;;;;;;;;;6.70;79.60;;;;;;4156772;28;19928;-84
2023/10/24 01:49:34;;;;;;;;;;;6.80;79.60;;;;;;4154454;28;19971;-85
2023/10/24 01:51:40;;;;;;;;;;;6.80;79.60;;;;;;4149506;28;19982;-84
2023/10/24 01:54:00;;;;;;;;;;;6.80;79.60;;;;;;4140635;28;19957;-84
2023/10/24 01:56:14;;;;;;;;;;;6.80;79.50;;;;;;4156273;28;19927;-84
2023/10/24 01:58:35;;;;;;;;;;;6.80;79.40;;;;;;4154206;28;19928;-84
2023/10/24 02:00:55;;;;;;;;;;;6.80;79.40;;;;;;4155732;28;19913;-84
2023/10/24 02:03:16;;;;;;;;;;;7.00;79.40;;;;;;4157508;28;19987;-84
2023/10/24 02:05:37;;;;;;;;;;;6.90;79.40;;;;;;4159630;28;19964;-84
2023/10/24 02:07:58;;;;;;;;;;;6.90;79.40;;;;;;4154163;28;19924;-84
2023/10/24 02:10:18;;;;;;;;;;;7.10;80.90;;;;;;4155732;28;19928;-85
2023/10/24 02:12:39;;;;;;;;;;;7.00;82.90;;;;;;4157452;28;20202;-84
2023/10/24 02:15:00;;;;;;;;;;;7.10;86.80;;;;;;4156514;28;19917;-85
2023/10/24 02:17:20;;;;;;;;;;;7.20;86.80;;;;;;4143782;28;19924;-83
2023/10/24 02:19:41;;;;;;;;;;;7.30;88.00;;;;;;4157840;28;19923;-84
2023/10/24 02:21:41;;;;;;;;;;;7.40;90.00;;;;;;4156509;28;19957;-84
2023/10/24 02:23:42;;;;;;;;;;;7.50;90.10;;;;;;4123589;28;20558;-85
2023/10/24 02:25:42;;;;;;;;;;;7.70;90.50;;;;;;4125353;28;20079;-84
2023/10/24 02:27:43;;;;;;;;;;;7.80;90.80;;;;;;4138405;28;20363;-83
2023/10/24 02:29:44;;;;;;;;;;;7.80;91.00;;;;;;4160464;28;19944;-84
2023/10/24 02:31:44;;;;;;;;;;;7.90;91.20;;;;;;4160491;28;19920;-84
2023/10/24 02:33:45;;;;;;;;;;;8.10;91.20;;;;;;4158380;28;20005;-83
2023/10/24 02:35:45;;;;;;;;;;;8.20;91.20;;;;;;4140632;28;19972;-84
2023/10/24 02:37:46;;;;;;;;;;;8.20;91.10;;;;;;4124080;28;19917;-83
2023/10/24 02:39:46;;;;;;;;;;;8.40;91.00;;;;;;4141441;28;19913;-84
2023/10/24 02:42:07;;;;;;;;;;;8.30;91.20;;;;;;4140798;28;19922;-84
2023/10/24 02:44:10;;;;;;;;;;;8.40;91.60;;;;;;4141163;28;19948;-84
2023/10/24 02:46:31;;;;;;;;;;;8.50;92.10;;;;;;4159953;28;19924;-84
2023/10/24 02:48:35;;;;;;;;;;;8.60;92.60;;;;;;4140919;28;20003;-84
2023/10/24 02:50:55;;;;;;;;;;;8.70;92.40;;;;;;4142812;28;19961;-84
2023/10/24 02:53:16;;;;;;;;;;;8.80;92.50;;;;;;4158884;28;19913;-84
2023/10/24 02:55:35;;;;;;;;;;;8.80;92.60;;;;;;4175828;28;19914;-83
2023/10/24 02:57:56;;;;;;;;;;;8.90;92.50;;;;;;4164786;28;20024;-84
2023/10/24 03:00:17;;;;;;;;;;;9.10;92.50;;;;;;4158621;28;19952;-84
2023/10/24 03:02:37;;;;;;;;;;;9.10;92.50;;;;;;4159969;28;19921;-86
2023/10/24 03:04:58;;;;;;;;;;;9.20;92.30;;;;;;4159964;28;19913;-83
2023/10/24 03:07:19;;;;;;;;;;;9.20;92.20;;;;;;4157016;28;19921;-85
2023/10/24 03:09:39;;;;;;;;;;;9.30;91.90;;;;;;4155318;28;19918;-84
2023/10/24 03:12:00;;;;;;;;;;;9.50;92.00;;;;;;4140593;28;19917;-83
2023/10/24 03:14:21;;;;;;;;;;;9.30;91.50;;;;;;4156790;28;19921;-87
2023/10/24 03:16:41;;;;;;;;;;;9.40;91.50;;;;;;4158875;28;19920;-86
2023/10/24 03:18:42;;;;;;;;;;;9.40;91.40;;;;;;4156648;28;19913;-83
2023/10/24 03:20:43;;;;;;;;;;;9.50;91.20;;;;;;4139829;28;19914;-84
2023/10/24 03:22:43;;;;;;;;;;;9.40;91.20;;;;;;4142179;28;19980;-84
2023/10/24 03:24:44;;;;;;;;;;;9.40;91.10;;;;;;4152542;28;19922;-87
2023/10/24 03:26:44;;;;;;;;;;;9.50;91.00;;;;;;4138507;28;19925;-85
2023/10/24 03:28:45;;;;;;;;;;;9.50;91.00;;;;;;4155087;28;19913;-86
2023/10/24 03:30:48;;;;;;;;;;;9.50;90.90;;;;;;4150833;28;19967;-86
2023/10/24 03:32:48;;;;;;;;;;;9.30;90.90;;;;;;4151798;28;19933;-84
2023/10/24 03:34:49;;;;;;;;;;;9.50;91.00;;;;;;4139121;28;19925;-85
2023/10/24 03:36:50;;;;;;;;;;;9.40;90.80;;;;;;4154483;28;20775;-86
2023/10/24 03:38:50;;;;;;;;;;;9.40;90.90;;;;;;4158012;28;19920;-84
2023/10/24 03:40:51;;;;;;;;;;;9.50;91.40;;;;;;4154314;28;20003;-85
2023/10/24 03:42:53;;;;;;;;;;;9.50;90.80;;;;;;4141193;28;20411;-84
2023/10/24 03:44:53;;;;;;;;;;;9.60;90.80;;;;;;4138850;28;20020;-84
2023/10/24 03:46:54;;;;;;;;;;;9.60;90.70;;;;;;4156974;28;20462;-86
2023/10/24 03:48:57;;;;;;;;;;;9.60;90.80;;;;;;4127378;28;19965;-84
2023/10/24 03:50:58;;;;;;;;;;;9.60;90.90;;;;;;4176719;28;20140;-84
2023/10/24 03:52:59;;;;;;;;;;;9.70;91.00;;;;;;4179273;28;19957;-88
2023/10/24 03:55:00;;;;;;;;;;;9.80;91.20;;;;;;4184038;28;19927;-85
2023/10/24 03:57:00;;;;;;;;;;;9.80;91.00;;;;;;4181580;28;19921;-85
2023/10/24 03:59:06;;;;;;;;;;;9.80;91.00;;;;;;4182140;28;19906;-84
2023/10/24 04:01:07;;;;;;;;;;;9.90;91.00;;;;;;4146719;28;23329;-84
2023/10/24 04:03:08;;;;;;;;;;;9.90;90.90;;;;;;4161079;28;19921;-83
2023/10/24 04:05:09;;;;;;;;;;;9.90;90.80;;;;;;4160476;28;19975;-84
2023/10/24 04:07:10;;;;;;;;;;;9.90;91.00;;;;;;4156227;28;20577;-85
2023/10/24 04:09:11;;;;;;;;;;;9.90;90.80;;;;;;4142154;28;19918;-83
2023/10/24 04:11:15;;;;;;;;;;;9.90;91.20;;;;;;4136469;28;20000;-83
2023/10/24 04:13:16;;;;;;;;;;;9.90;90.70;;;;;;4158083;28;19971;-85
2023/10/24 04:15:17;;;;;;;;;;;9.90;90.60;;;;;;4123303;28;19922;-84
2023/10/24 04:17:37;;;;;;;;;;;10.00;90.80;;;;;;4155551;28;19917;-86
2023/10/24 04:19:58;;;;;;;;;;;10.10;90.60;;;;;;4155988;28;19909;-87
2023/10/24 04:22:10;;;;;;;;;;;10.10;90.40;;;;;;4156748;28;19924;-83
2023/10/24 04:24:31;;;;;;;;;;;10.20;90.20;;;;;;4159706;28;19917;-85
2023/10/24 04:26:52;;;;;;;;;;;10.20;90.20;;;;;;4138719;28;19921;-84
2023/10/24 04:29:31;;;;;;;;;;;10.10;90.10;;;;;;4119986;28;21144;-85
2023/10/24 04:31:51;;;;;;;;;;;10.20;90.10;;;;;;4157844;28;19921;-84
2023/10/24 04:34:12;;;;;;;;;;;10.10;90.00;;;;;;4155808;28;19995;-84
2023/10/24 04:36:32;;;;;;;;;;;10.00;90.10;;;;;;4155852;28;19951;-83
2023/10/24 04:38:53;;;;;;;;;;;10.00;90.20;;;;;;4156579;28;19921;-85
2023/10/24 04:41:13;;;;;;;;;;;10.00;90.20;;;;;;4144801;28;19920;-84
2023/10/24 04:43:34;;;;;;;;;;;10.20;90.10;;;;;;4144071;28;19930;-85
2023/10/24 04:45:55;;;;;;;;;;;10.10;90.00;;;;;;4155042;28;19921;-84
2023/10/24 04:48:15;;;;;;;;;;;10.00;90.10;;;;;;4156387;28;19913;-84
2023/10/24 04:50:38;;;;;;;;;;;10.00;90.00;;;;;;4157081;28;19940;-83
2023/10/24 04:52:58;;;;;;;;;;;10.10;90.00;;;;;;4155437;28;19913;-86
2023/10/24 04:55:19;;;;;;;;;;;10.10;89.90;;;;;;4156696;28;19920;-84
2023/10/24 04:57:41;;;;;;;;;;;10.00;90.00;;;;;;4158183;28;19920;-84
2023/10/24 05:00:03;;;;;;;;;;;10.10;90.00;;;;;;4156765;28;20012;-82
2023/10/24 05:02:24;;;;;;;;;;;10.20;90.00;;;;;;4175138;28;19916;-86
2023/10/24 05:04:44;;;;;;;;;;;10.00;89.70;;;;;;4173750;28;19905;-83
2023/10/24 05:07:05;;;;;;;;;;;10.00;90.00;;;;;;4165301;28;19932;-84
2023/10/24 05:09:25;;;;;;;;;;;10.00;90.00;;;;;;4156465;28;19952;-84
2023/10/24 05:11:46;;;;;;;;;;;10.20;89.90;;;;;;4155727;28;20028;-85
2023/10/24 05:14:06;;;;;;;;;;;10.10;89.60;;;;;;4142780;28;20048;-85
2023/10/24 05:16:07;;;;;;;;;;;10.20;89.60;;;;;;4154885;28;20303;-84
2023/10/24 05:18:11;;;;;;;;;;;10.20;89.90;;;;;;4157336;28;19909;-85
2023/10/24 05:20:16;;;;;;;;;;;10.10;89.50;;;;;;4158251;28;19913;-83
2023/10/24 05:22:17;;;;;;;;;;;10.10;89.80;;;;;;4155737;28;19909;-84
2023/10/24 05:24:18;;;;;;;;;;;10.20;89.60;;;;;;4158065;28;19988;-83
2023/10/24 05:26:18;;;;;;;;;;;10.10;89.70;;;;;;4158462;28;20003;-83
2023/10/24 05:28:19;;;;;;;;;;;10.20;89.50;;;;;;4140396;28;19990;-85
2023/10/24 05:30:21;;;;;;;;;;;10.10;89.70;;;;;;4141494;28;19918;-86
2023/10/24 05:32:22;;;;;;;;;;;10.10;89.90;;;;;;4136312;28;19922;-85
2023/10/24 05:34:27;;;;;;;;;;;10.10;89.80;;;;;;4154956;28;20000;-83
2023/10/24 05:36:30;;;;;;;;;;;10.10;90.00;;;;;;4156037;28;20013;-87
2023/10/24 05:38:32;;;;;;;;;;;10.10;89.70;;;;;;4160264;28;20381;-84
2023/10/24 05:40:33;;;;;;;;;;;10.20;89.60;;;;;;4158485;28;20229;-85
2023/10/24 05:42:54;;;;;;;;;;;10.30;89.80;;;;;;4141201;28;20367;-84
2023/10/24 05:44:54;;;;;;;;;;;10.10;89.60;;;;;;4138343;28;19917;-84
2023/10/24 05:47:15;;;;;;;;;;;10.20;89.60;;;;;;4156862;28;19920;-86
2023/10/24 05:49:35;;;;;;;;;;;10.20;89.50;;;;;;4156742;28;19916;-86
2023/10/24 05:51:56;;;;;;;;;;;10.10;89.90;;;;;;4159497;28;19924;-86
2023/10/24 05:54:17;;;;;;;;;;;10.10;90.00;;;;;;4159475;28;19968;-85
2023/10/24 05:56:37;;;;;;;;;;;10.20;89.70;;;;;;4160334;28;19925;-84
2023/10/24 05:58:58;;;;;;;;;;;10.20;90.00;;;;;;4145844;28;19914;-84
2023/10/24 06:00:58;;;;;;;;;;;10.30;89.60;;;;;;4144573;28;19920;-85
2023/10/24 06:03:20;;;;;;;;;;;10.30;89.20;;;;;;4159264;28;19921;-81
2023/10/24 06:05:40;;;;;;;;;;;10.30;89.40;;;;;;4159722;28;19944;-85
2023/10/24 06:08:01;;;;;;;;;;;10.20;89.10;;;;;;4160985;28;19928;-85
2023/10/24 06:10:21;;;;;;;;;;;10.20;89.10;;;;;;4162629;28;19914;-82
2023/10/24 06:12:42;;;;;;;;;;;10.20;89.60;;;;;;4144585;28;19989;-85
2023/10/24 06:15:03;;;;;;;;;;;10.20;90.00;;;;;;4159277;28;20000;-84
2023/10/24 06:17:04;;;;;;;;;;;10.20;89.70;;;;;;4156186;28;19921;-84
2023/10/24 06:19:04;;;;;;;;;;;10.30;89.80;;;;;;4160609;28;19924;-84
2023/10/24 06:21:05;;;;;;;;;;;10.30;89.90;;;;;;4158043;28;19917;-84
2023/10/24 06:23:07;;;;;;;;;;;10.20;90.00;;;;;;4156018;28;19917;-85
2023/10/24 06:25:09;;;;;;;;;;;10.30;90.20;;;;;;4144892;28;19917;-85
2023/10/24 06:27:10;;;;;;;;;;;10.20;90.00;;;;;;4154017;28;19913;-85
2023/10/24 06:29:11;;;;;;;;;;;10.10;90.00;;;;;;4129600;28;19957;-86
2023/10/24 06:31:19;;;;;;;;;;;10.30;90.20;;;;;;4143592;28;20276;-85
2023/10/24 06:33:20;;;;;;;;;;;10.20;90.20;;;;;;4155523;28;19923;-83
2023/10/24 06:35:41;;;;;;;;;;;10.20;90.30;;;;;;4150370;28;19974;-85
2023/10/24 06:37:44;;;;;;;;;;;10.10;90.20;;;;;;4159271;28;19928;-85
2023/10/24 06:40:07;;;;;;;;;;;10.30;90.40;;;;;;4156788;28;20060;-85
2023/10/24 06:42:29;;;;;;;;;;;10.20;90.10;;;;;;4156339;28;19921;-83
2023/10/24 06:44:38;;;;;;;;;;;10.30;90.40;;;;;;4158813;28;19912;-84
2023/10/24 06:46:59;;;;;;;;;;;10.30;90.30;;;;;;4153663;28;19917;-83
2023/10/24 06:49:20;;;;;;;;;;;10.30;90.10;;;;;;4154796;28;19917;-83
2023/10/24 06:51:21;;;;;;;;;;;10.30;90.10;;;;;;4119082;28;19922;-84
2023/10/24 06:53:42;;;;;;;;;;;10.30;90.10;;;;;;4159032;28;19920;-84
2023/10/24 06:56:03;;;;;;;;;;;10.50;90.10;;;;;;4141970;28;19918;-84
2023/10/24 06:58:23;;;;;;;;;;;10.40;89.90;;;;;;4157519;28;19913;-84
2023/10/24 07:00:45;;;;;;;;;;;10.40;89.90;;;;;;4158348;28;19939;-83
2023/10/24 07:03:08;;;;;;;;;;;10.50;90.10;;;;;;4153686;28;19924;-84
2023/10/24 07:05:29;;;;;;;;;;;10.50;89.90;;;;;;4156411;28;19917;-84
2023/10/24 07:07:32;;;;;;;;;;;10.50;89.40;;;;;;4157684;28;19932;-84
2023/10/24 07:09:33;;;;;;;;;;;10.60;89.70;;;;;;4159194;28;19917;-84
2023/10/24 07:11:34;;;;;;;;;;;10.50;90.00;;;;;;4156061;28;19988;-84
2023/10/24 07:13:37;;;;;;;;;;;10.50;89.70;;;;;;4138977;28;19976;-86
2023/10/24 07:15:39;;;;;;;;;;;10.60;89.80;;;;;;4173528;28;19901;-89
2023/10/24 07:17:39;;;;;;;;;;;10.40;89.50;;;;;;4160773;28;20000;-85
2023/10/24 07:19:40;;;;;;;;;;;10.50;90.00;;;;;;4139631;28;20133;-84
2023/10/24 07:21:40;;;;;;;;;;;10.60;90.00;;;;;;4155419;28;20085;-84
2023/10/24 07:23:44;;;;;;;;;;;10.50;90.00;;;;;;4143772;28;20002;-86
2023/10/24 07:25:44;;;;;;;;;;;10.50;90.00;;;;;;4156404;28;19921;-85
2023/10/24 07:27:46;;;;;;;;;;;10.50;90.00;;;;;;4138910;28;19931;-86
2023/10/24 07:29:47;;;;;;;;;;;10.50;90.00;;;;;;4131123;28;19917;-84
2023/10/24 07:31:47;;;;;;;;;;;10.50;90.00;;;;;;4136941;28;19960;-86
2023/10/24 07:33:48;;;;;;;;;;;10.60;90.20;;;;;;4123755;28;19922;-85
2023/10/24 07:35:50;;;;;;;;;;;10.60;90.00;;;;;;4123480;28;19918;-87
2023/10/24 07:37:51;;;;;;;;;;;10.40;90.00;;;;;;4141755;28;19984;-89
2023/10/24 07:39:52;;;;;;;;;;;10.40;90.20;;;;;;4156723;28;20383;-85
2023/10/24 07:41:52;;;;;;;;;;;10.50;90.30;;;;;;4138039;28;20012;-86
2023/10/24 07:43:53;;;;;;;;;;;10.40;90.20;;;;;;4158043;28;19925;-88
2023/10/24 07:45:53;;;;;;;;;;;10.40;90.10;;;;;;4138580;28;19925;-86
2023/10/24 07:47:54;;;;;;;;;;;10.40;90.30;;;;;;4141071;28;19918;-86
2023/10/24 07:49:55;;;;;;;;;;;10.50;90.40;;;;;;4151349;28;19917;-86
2023/10/24 07:51:56;;;;;;;;;;;10.40;90.20;;;;;;4123525;28;19910;-85
2023/10/24 07:53:58;;;;;;;;;;;10.40;90.40;;;;;;4155925;28;19951;-86
2023/10/24 07:56:02;;;;;;;;;;;10.40;90.50;;;;;;4156145;28;19913;-85
2023/10/24 07:58:23;;;;;;;;;;;10.30;90.60;;;;;;4157797;28;19928;-86
2023/10/24 08:00:46;;;;;;;;;;;10.40;90.60;;;;;;4156716;28;19971;-85
2023/10/24 08:02:47;;;;;;;;;;;10.30;90.80;;;;;;4157396;28;20478;-87
2023/10/24 08:05:08;;;;;;;;;;;10.30;91.00;;;;;;4156001;28;19921;-85
2023/10/24 08:07:28;;;;;;;;;;;10.30;90.90;;;;;;4138014;28;19921;-88
2023/10/24 08:09:49;;;;;;;;;;;10.30;91.10;;;;;;4154922;28;19927;-89
2023/10/24 08:12:10;;;;;;;;;;;10.40;91.10;;;;;;4154854;28;19975;-86
2023/10/24 08:14:31;;;;;;;;;;;10.50;91.30;;;;;;4157921;28;19923;-87
2023/10/24 08:16:51;;;;;;;;;;;10.30;91.10;;;;;;4156101;28;20328;-86
2023/10/24 08:19:12;;;;;;;;;;;10.40;91.10;;;;;;4139981;28;19992;-86
2023/10/24 08:21:32;;;;;;;;;;;10.50;91.20;;;;;;4149652;28;20008;-86
2023/10/24 08:23:54;;;;;;;;;;;10.50;91.30;;;;;;4152926;28;19917;-87
2023/10/24 08:26:15;;;;;;;;;;;10.60;91.00;;;;;;4138914;28;19921;-85
2023/10/24 08:28:39;;;;;;;;;;;10.50;91.00;;;;;;4153919;28;19917;-88
2023/10/24 08:31:00;;;;;;;;;;;10.50;90.90;;;;;;4154958;28;19913;-89
2023/10/24 08:33:22;;;;;;;;;;;10.50;91.00;;;;;;4158631;28;19983;-87
2023/10/24 08:35:46;;;;;;;;;;;10.50;91.20;;;;;;4156471;28;19944;-90
2023/10/24 08:37:47;;;;;;;;;;;10.40;91.10;;;;;;4121157;28;19918;-89
2023/10/24 08:39:48;;;;;;;;;;;10.60;91.60;;;;;;4155561;28;20294;-87
2023/10/24 08:41:51;;;;;;;;;;;10.60;91.10;;;;;;4152107;28;19917;-86
2023/10/24 08:43:51;;;;;;;;;;;10.70;91.00;;;;;;4147606;28;19986;-88
2023/10/24 08:45:53;;;;;;;;;;;10.50;91.10;;;;;;4138431;28;20422;-86
2023/10/24 08:47:53;;;;;;;;;;;10.50;90.90;;;;;;4139766;28;19976;-87
2023/10/24 08:49:55;;;;;;;;;;;10.60;91.00;;;;;;4136676;28;19917;-87
2023/10/24 08:51:56;;;;;;;;;;;10.60;90.90;;;;;;4156198;28;19924;-86
2023/10/24 08:53:56;;;;;;;;;;;10.60;91.00;;;;;;4155856;28;19917;-88
2023/10/24 08:55:57;;;;;;;;;;;10.60;91.10;;;;;;4137855;28;20024;-87
2023/10/24 08:57:59;;;;;;;;;;;10.50;91.10;;;;;;4136359;28;19992;-86
2023/10/24 09:00:00;;;;;;;;;;;10.50;91.10;;;;;;4139542;28;19947;-86
2023/10/24 09:02:01;;;;;;;;;;;10.40;91.40;;;;;;4154718;28;19960;-87
2023/10/24 09:04:03;;;;;;;;;;;10.30;91.40;;;;;;4154322;28;19917;-86
2023/10/24 09:06:03;;;;;;;;;;;10.30;91.60;;;;;;4136189;28;20326;-85
2023/10/24 09:08:04;;;;;;;;;;;10.30;91.80;;;;;;4138634;28;19940;-87
2023/10/24 09:10:05;;;;;;;;;;;10.50;91.80;;;;;;4156266;28;19955;-88
2023/10/24 09:12:07;;;;;;;;;;;10.30;91.70;;;;;;4155095;28;20003;-86
2023/10/24 09:14:08;;;;;;;;;;;10.20;92.00;;;;;;4137677;28;19933;-87
2023/10/24 09:16:09;;;;;;;;;;;10.30;91.90;;;;;;4150211;28;19917;-86
2023/10/24 09:18:16;;;;;;;;;;;10.40;91.90;;;;;;4155021;28;19990;-89
2023/10/24 09:20:17;;;;;;;;;;;10.10;92.10;;;;;;4132429;28;19924;-87
2023/10/24 09:22:18;;;;;;;;;;;10.20;92.30;;;;;;4137578;28;20398;-86
2023/10/24 09:24:19;;;;;;;;;;;10.30;92.10;;;;;;4140688;28;19929;-87
2023/10/24 09:26:21;;;;;;;;;;;10.20;92.30;;;;;;4141262;28;19945;-89
2023/10/24 09:28:21;;;;;;;;;;;10.30;92.10;;;;;;4163316;28;19963;-87
2023/10/24 09:30:23;;;;;;;;;;;10.20;92.30;;;;;;4143091;28;19898;-86
2023/10/24 09:32:26;;;;;;;;;;;10.20;92.40;;;;;;4160694;28;19905;-86
2023/10/24 09:34:27;;;;;;;;;;;10.40;92.50;;;;;;4141208;28;19933;-87
2023/10/24 09:36:48;;;;;;;;;;;10.10;92.20;;;;;;4161132;28;19947;-89
2023/10/24 09:38:50;;;;;;;;;;;10.30;92.30;;;;;;4159381;28;19948;-90
2023/10/24 09:41:11;;;;;;;;;;;10.20;92.20;;;;;;4160232;28;19952;-92
2023/10/24 09:43:24;;;;;;;;;;;10.30;92.30;;;;;;4163764;28;19928;-85
2023/10/24 09:45:45;;;;;;;;;;;10.10;92.40;;;;;;4161280;28;19928;-88
2023/10/24 09:48:07;;;;;;;;;;;10.30;92.40;;;;;;4160030;28;19913;-86
2023/10/24 09:50:28;;;;;;;;;;;10.30;92.30;;;;;;4161353;28;19921;-87
2023/10/24 09:52:39;;;;;;;;;;;10.20;92.20;;;;;;4145012;28;19917;-86
2023/10/24 09:54:59;;;;;;;;;;;10.20;92.30;;;;;;4163042;28;19988;-89
2023/10/24 09:57:23;;;;;;;;;;;10.20;92.20;;;;;;4160011;28;19996;-90
2023/10/24 09:59:47;;;;;;;;;;;10.30;92.20;;;;;;4140583;28;19925;-89
2023/10/24 10:02:08;;;;;;;;;;;10.20;92.10;;;;;;4160132;28;20371;-85
2023/10/24 10:04:31;;;;;;;;;;;10.30;92.20;;;;;;4163763;28;20406;-87
2023/10/24 10:06:51;;;;;;;;;;;10.40;92.20;;;;;;4158138;28;19925;-88
2023/10/24 10:09:13;;;;;;;;;;;10.30;91.90;;;;;;4147021;28;19917;-90
2023/10/24 10:11:33;;;;;;;;;;;10.50;92.10;;;;;;4144858;28;19914;-89
2023/10/24 10:13:55;;;;;;;;;;;10.50;91.90;;;;;;4160187;28;20651;-84
2023/10/24 10:16:22;;;;;;;;;;;10.50;92.00;;;;;;4159552;28;20004;-85
2023/10/24 10:18:43;;;;;;;;;;;10.50;91.80;;;;;;4161916;28;19917;-88
2023/10/24 10:21:29;;;;;;;;;;;10.60;91.80;;;;;;4160890;28;19921;-87
2023/10/24 10:24:08;;;;;;;;;;;10.60;91.70;;;;;;4174140;28;19971;-87
2023/10/24 10:26:39;;;;;;;;;;;10.70;91.50;;;;;;4174320;28;19945;-86
2023/10/24 10:29:06;;;;;;;;;;;10.70;91.50;;;;;;4168420;28;19917;-86
2023/10/24 10:31:26;;;;;;;;;;;10.70;91.40;;;;;;4186082;28;19902;-87
2023/10/24 10:33:47;;;;;;;;;;;10.70;91.50;;;;;;4176782;28;20349;-85
2023/10/24 10:36:01;;;;;;;;;;;10.70;91.40;;;;;;4146354;28;19920;-87
2023/10/24 10:38:05;;;;;;;;;;;10.70;91.40;;;;;;4141151;28;19922;-88
2023/10/24 10:40:15;;;;;;;;;;;10.60;91.30;;;;;;4159483;28;19916;-88
2023/10/24 10:42:41;;;;;;;;;;;10.80;91.40;;;;;;4147154;28;20410;-86
2023/10/24 10:44:42;;;;;;;;;;;10.80;91.30;;;;;;4159567;28;20016;-86
2023/10/24 10:46:57;;;;;;;;;;;10.80;91.30;;;;;;4159106;28;19914;-88
2023/10/24 10:48:59;;;;;;;;;;;10.80;91.30;;;;;;4157907;28;20458;-87
2023/10/24 10:51:06;;;;;;;;;;;10.90;91.30;;;;;;4152457;28;19939;-89
2023/10/24 10:53:12;;;;;;;;;;;11.00;91.30;;;;;;4138717;28;20008;-90
2023/10/24 10:55:19;;;;;;;;;;;11.00;91.10;;;;;;4143045;28;19914;-89
2023/10/24 10:57:23;;;;;;;;;;;11.00;91.00;;;;;;4141296;28;19909;-89
2023/10/24 10:59:31;;;;;;;;;;;11.10;91.00;;;;;;4141371;28;20567;-89
2023/10/24 11:01:43;;;;;;;;;;;11.20;90.90;;;;;;4157205;28;19970;-89
2023/10/24 11:03:44;;;;;;;;;;;11.10;90.90;;;;;;4160381;28;19978;-91
2023/10/24 11:05:45;;;;;;;;;;;11.20;90.90;;;;;;4158721;28;19927;-89
2023/10/24 11:07:52;;;;;;;;;;;11.10;90.80;;;;;;4158923;28;19921;-88
2023/10/24 11:09:53;;;;;;;;;;;11.10;90.90;;;;;;4156774;28;20008;-87
2023/10/24 11:12:13;;;;;;;;;;;11.20;90.80;;;;;;4140704;28;20423;-90
2023/10/24 11:14:20;;;;;;;;;;;11.20;90.70;;;;;;4146104;28;20012;-87
2023/10/24 11:16:21;;;;;;;;;;;11.20;90.60;;;;;;4135814;28;20008;-87
2023/10/24 11:18:26;;;;;;;;;;;11.10;90.60;;;;;;4137483;28;19924;-87
2023/10/24 11:20:46;;;;;;;;;;;11.20;90.40;;;;;;4137743;28;19921;-86
2023/10/24 11:23:07;;;;;;;;;;;11.20;90.40;;;;;;4143129;28;20626;-88
2023/10/24 11:25:08;;;;;;;;;;;11.30;90.40;;;;;;4140180;28;19953;-87
2023/10/24 11:27:09;;;;;;;;;;;11.30;90.40;;;;;;4154168;28;19917;-90
2023/10/24 11:29:18;;;;;;;;;;;11.30;90.40;;;;;;4139038;28;20047;-86
2023/10/24 11:31:41;;;;;;;;;;;11.30;90.20;;;;;;4153400;28;20131;-86
2023/10/24 11:33:58;;;;;;;;;;;11.30;90.20;;;;;;4137030;28;19917;-86
2023/10/24 11:36:19;;;;;;;;;;;11.40;90.20;;;;;;4154934;28;19921;-85
2023/10/24 11:38:40;;;;;;;;;;;11.40;90.10;;;;;;4153466;28;19963;-89
2023/10/24 11:41:01;;;;;;;;;;;11.40;90.00;;;;;;4153396;28;20379;-88
2023/10/24 11:43:25;;;;;;;;;;;11.40;90.20;;;;;;4152519;28;19933;-87
2023/10/24 11:45:46;;;;;;;;;;;11.30;90.00;;;;;;4141924;28;19916;-87
2023/10/24 11:48:12;;;;;;;;;;;11.30;89.90;;;;;;4157516;28;19906;-93
2023/10/24 11:50:37;;;;;;;;;;;11.30;89.90;;;;;;4163401;28;19913;-87
2023/10/24 11:52:57;;;;;;;;;;;11.30;89.80;;;;;;4155491;28;19997;-89
2023/10/24 11:55:18;;;;;;;;;;;11.40;89.70;;;;;;4141822;28;19913;-86
2023/10/24 11:57:42;;;;;;;;;;;11.30;89.60;;;;;;4153145;28;20394;-87
2023/10/24 12:00:11;;;;;;;;;;;11.30;89.80;;;;;;4152012;28;19936;-88
2023/10/24 12:08:07;;;;;;;;;;;11.30;89.50;;;;;;4710648;23;20835;-86
2023/10/24 12:10:34;;;;;;;;;;;11.40;89.40;;;;;;4142453;28;20289;-90
2023/10/24 12:16:10;;;;;;;;;;;11.30;89.60;;;;;;4153274;28;19921;-89
2023/10/24 12:18:33;;;;;;;;;;;11.30;89.40;;;;;;4139335;28;20010;-90
2023/10/24 12:20:36;;;;;;;;;;;11.30;89.50;;;;;;4164666;28;19924;-89
2023/10/24 12:25:34;;;;;;;;;;;11.40;89.40;;;;;;4153810;28;20282;-90
2023/10/24 12:27:35;;;;;;;;;;;11.40;89.20;;;;;;4156007;28;19917;-90
2023/10/24 12:29:39;;;;;;;;;;;11.40;89.20;;;;;;4123698;28;20703;-88
2023/10/24 12:31:40;;;;;;;;;;;11.40;89.20;;;;;;4136776;28;19953;-88
2023/10/24 12:36:32;;;;;;;;;;;11.40;88.90;;;;;;4133678;28;20310;-90
2023/10/24 12:38:37;;;;;;;;;;;11.40;89.00;;;;;;4166858;28;19944;-88
2023/10/24 12:40:41;;;;;;;;;;;11.40;89.10;;;;;;4142394;28;20000;-90
2023/10/24 12:42:42;;;;;;;;;;;11.40;89.00;;;;;;4167731;28;20031;-89
2023/10/24 12:44:43;;;;;;;;;;;11.50;89.00;;;;;;4139597;28;20364;-89
2023/10/24 12:46:52;;;;;;;;;;;11.40;88.80;;;;;;4136208;28;19913;-87
2023/10/24 12:48:53;;;;;;;;;;;11.40;89.60;;;;;;4135879;28;19917;-87
2023/10/24 12:50:56;;;;;;;;;;;11.50;89.00;;;;;;4161472;28;20060;-88
2023/10/24 12:52:57;;;;;;;;;;;11.40;88.90;;;;;;4147057;28;19917;-89
2023/10/24 12:55:20;;;;;;;;;;;11.40;89.10;;;;;;4139154;28;19917;-88